Time;durP1;ratioP1;P1;durP2;ratioP2;P2;SDS_P1;SDS_P2;PMS_P1;PMS_P2;Temp;Humidity;BMP_temperature;BMP_pressure;BME280_temperature;BME280_humidity;BME280_pressure;Samples;Min_cycle;Max_cycle;Signal;HPM_P1;HPM_P2
2023/03/21 01:07:30;;;;;;;;;;;;;;;10.54;60.39;100080.44;1075050;54;20797;-87
2023/03/21 01:51:09;;;;;;;;;;;;;;;10.70;61.00;100045.91;1088422;54;20959;-83
2023/03/21 01:52:19;;;;;;;;;;;;;;;10.66;61.01;100049.03;1088449;54;19975;-83
2023/03/21 02:57:21;;;;;;;;;;;;;;;10.60;61.88;100027.25;1082869;54;19942;31
2023/03/21 03:07:30;;;;;;;;;;;;;;;10.54;62.35;100014.44;1087929;54;19938;-83
2023/03/21 13:47:48;;;;;;;;;;;;;;;16.25;44.00;99749.00;1081259;39;21269;31
2023/03/21 14:43:07;;;;;;;;;;;;;;;15.85;45.11;99703.53;1077827;54;20764;-85
2023/03/21 15:06:11;;;;;;;;;;;;;;;16.15;44.95;99695.41;1088690;39;20369;-81
2023/03/21 15:07:31;;;;;;;;;;;;;;;16.17;44.78;99691.47;1088191;54;20757;-83
2023/03/21 15:09:59;;;;;;;;;;;;;;;16.15;44.80;99693.53;1087778;54;20738;-81
2023/03/21 15:10:46;;;;;;;;;;;;;;;16.12;45.03;99695.75;1092670;47;19967;-84
2023/03/21 15:11:04;;;;;;;;;;;;;;;16.05;44.67;99691.16;1087708;54;19942;-83
2023/03/21 15:12:10;;;;;;;;;;;;;;;15.80;44.96;99687.03;1087618;54;19942;-78
2023/03/21 15:13:14;;;;;;;;;;;;;;;15.80;44.88;99692.44;1087550;54;19942;-80
2023/03/21 15:14:21;;;;;;;;;;;;;;;15.88;44.88;99693.22;1089201;47;19949;-80
2023/03/21 15:15:25;;;;;;;;;;;;;;;15.94;45.01;99688.06;1087592;54;20261;-79
2023/03/21 15:16:28;;;;;;;;;;;;;;;15.89;45.11;99680.56;1087693;54;19943;-80
2023/03/21 15:17:32;;;;;;;;;;;;;;;15.90;45.26;99693.00;1087628;54;19957;-80
2023/03/21 15:18:37;;;;;;;;;;;;;;;15.75;45.58;99684.91;1087566;54;19943;-80
2023/03/21 15:19:42;;;;;;;;;;;;;;;15.60;45.85;99688.47;1087491;54;19946;-80
2023/03/21 15:36:55;;;;;;;;;;;;;;;15.88;45.20;99684.28;1088553;54;19915;-80
2023/03/21 15:38:19;;;;;;;;;;;;;;;15.84;45.26;99678.44;1088517;54;19967;-80
2023/03/21 15:39:25;;;;;;;;;;;;;;;15.92;45.29;99684.75;1088665;46;19930;-80
2023/03/21 15:42:34;;;;;;;;;;;;;;;15.97;45.17;99688.53;1088234;54;19938;-79
2023/03/21 15:43:40;;;;;;;;;;;;;;;15.90;45.63;99682.22;1088173;54;19943;-80
2023/03/21 15:44:48;;;;;;;;;;;;;;;15.86;45.54;99689.03;1088308;54;19938;-80
2023/03/21 15:45:53;;;;;;;;;;;;;;;15.77;45.80;99687.44;1092112;46;19943;-80
2023/03/21 15:47:06;;;;;;;;;;;;;;;15.74;45.74;99677.84;1088473;46;19998;-80
2023/03/21 15:48:11;;;;;;;;;;;;;;;15.78;46.09;99681.84;1087920;54;19942;-80
2023/03/21 15:49:25;;;;;;;;;;;;;;;15.74;46.19;99669.75;1089787;46;19962;-80
2023/03/21 15:50:35;;;;;;;;;;;;;;;15.73;45.80;99685.09;1088069;54;19949;-80
2023/03/21 15:53:19;;;;;;;;;;;;;;;15.62;45.88;99682.88;1088063;54;19942;-81
2023/03/21 15:54:26;;;;;;;;;;;;;;;15.54;45.95;99683.81;1088625;46;19942;-81
2023/03/21 15:55:35;;;;;;;;;;;;;;;15.47;46.51;99684.75;1087728;54;19950;-81
2023/03/21 15:56:41;;;;;;;;;;;;;;;15.38;46.80;99695.63;1087463;54;19950;-80
2023/03/21 15:57:48;;;;;;;;;;;;;;;15.39;46.36;99691.91;1087791;54;19994;-83
2023/03/21 15:58:51;;;;;;;;;;;;;;;15.43;46.57;99695.88;1087797;54;19942;-81
2023/03/21 15:59:57;;;;;;;;;;;;;;;15.43;46.64;99685.13;1087270;54;19942;-81
2023/03/21 16:01:00;;;;;;;;;;;;;;;15.49;46.38;99688.94;1087001;54;20006;-81
2023/03/21 16:02:07;;;;;;;;;;;;;;;15.54;46.31;99683.81;1087784;54;19974;-81
2023/03/21 16:03:15;;;;;;;;;;;;;;;15.59;46.43;99685.94;1088096;54;19943;-81
2023/03/21 16:04:33;;;;;;;;;;;;;;;15.66;46.06;99686.03;1087257;54;19951;-78
2023/03/21 16:05:38;;;;;;;;;;;;;;;15.70;46.07;99679.25;1087250;54;19965;-80
2023/03/21 16:06:53;;;;;;;;;;;;;;;15.72;46.09;99683.44;1087385;54;20044;-80
2023/03/21 16:07:58;;;;;;;;;;;;;;;15.77;45.52;99673.97;1087935;46;19969;-81
2023/03/21 16:09:06;;;;;;;;;;;;;;;15.77;45.70;99682.06;1087740;54;19940;-80
2023/03/21 16:10:30;;;;;;;;;;;;;;;15.76;45.79;99678.50;1087584;54;19950;-79
2023/03/21 16:11:42;;;;;;;;;;;;;;;15.71;45.73;99676.38;1087717;54;19942;-80
2023/03/21 16:12:52;;;;;;;;;;;;;;;15.64;45.90;99672.75;1087861;54;20488;-80
2023/03/21 16:14:00;;;;;;;;;;;;;;;15.62;45.96;99671.28;1087846;54;19942;-80
2023/03/21 16:15:01;;;;;;;;;;;;;;;15.62;45.87;99672.09;1087713;54;19969;-80
2023/03/21 16:16:05;;;;;;;;;;;;;;;15.62;46.16;99666.72;1087668;54;19949;-81
2023/03/21 16:17:35;;;;;;;;;;;;;;;15.58;46.10;99660.88;1087702;54;19943;-82
2023/03/21 16:18:49;;;;;;;;;;;;;;;15.58;46.03;99662.75;1088381;46;19943;-81
2023/03/21 16:20:05;;;;;;;;;;;;;;;15.59;46.37;99661.69;1087826;54;19946;-80
2023/03/21 16:21:11;;;;;;;;;;;;;;;15.60;46.33;99655.28;1087820;54;19943;-80
2023/03/21 16:22:18;;;;;;;;;;;;;;;15.60;46.09;99661.53;1088061;46;19942;-80
2023/03/21 16:23:19;;;;;;;;;;;;;;;15.60;46.11;99663.38;1087676;54;19950;-79
2023/03/21 16:24:36;;;;;;;;;;;;;;;15.51;46.46;99661.78;1087743;54;19951;-80
2023/03/21 16:25:41;;;;;;;;;;;;;;;15.48;46.48;99656.81;1087596;54;19951;-81
2023/03/21 16:26:52;;;;;;;;;;;;;;;15.47;46.43;99657.81;1087475;54;19957;-80
2023/03/21 16:28:12;;;;;;;;;;;;;;;15.51;46.42;99653.72;1087562;54;19946;-78
2023/03/21 16:29:27;;;;;;;;;;;;;;;15.56;46.39;99659.41;1087731;54;19944;-80
2023/03/21 16:30:31;;;;;;;;;;;;;;;15.57;46.37;99652.97;1087776;54;19951;-81
2023/03/21 16:31:33;;;;;;;;;;;;;;;15.61;46.10;99654.25;1087259;54;19950;-79
2023/03/21 16:32:37;;;;;;;;;;;;;;;15.65;46.15;99663.66;1087665;54;19942;-79
2023/03/21 16:33:38;;;;;;;;;;;;;;;15.65;45.86;99658.28;1087684;54;19939;-80
2023/03/21 16:34:44;;;;;;;;;;;;;;;15.65;46.00;99660.09;1087659;54;19949;-79
2023/03/21 16:35:47;;;;;;;;;;;;;;;15.61;46.26;99659.66;1087590;54;19965;-81
2023/03/21 16:36:51;;;;;;;;;;;;;;;15.59;46.18;99656.31;1087752;54;19954;-80
2023/03/21 16:37:52;;;;;;;;;;;;;;;15.55;46.12;99655.84;1087363;54;19947;-80
2023/03/21 16:38:57;;;;;;;;;;;;;;;15.55;46.45;99655.03;1087807;54;19942;-79
2023/03/21 16:39:58;;;;;;;;;;;;;;;15.56;46.35;99648.63;1087904;54;19939;-79
2023/03/21 16:41:04;;;;;;;;;;;;;;;15.57;46.09;99647.59;1087705;46;19946;-81
2023/03/21 16:42:06;;;;;;;;;;;;;;;15.58;46.31;99649.28;1087350;54;19950;-80
2023/03/21 16:43:09;;;;;;;;;;;;;;;15.58;46.26;99650.09;1087254;54;19950;-79
2023/03/21 16:44:11;;;;;;;;;;;;;;;15.56;46.20;99645.91;1087079;54;19966;-79
2023/03/21 16:45:14;;;;;;;;;;;;;;;15.51;46.17;99640.25;1087428;54;19965;-79
2023/03/21 16:46:19;;;;;;;;;;;;;;;15.52;46.25;99639.22;1087449;54;19946;-80
2023/03/21 16:47:22;;;;;;;;;;;;;;;15.49;45.99;99647.69;1087305;54;19973;-79
2023/03/21 16:48:26;;;;;;;;;;;;;;;15.50;45.98;99647.50;1087450;54;19945;-80
2023/03/21 16:49:50;;;;;;;;;;;;;;;15.51;46.15;99646.47;1087690;54;19950;-79
2023/03/21 16:50:55;;;;;;;;;;;;;;;15.52;45.93;99653.53;1087651;54;20025;-81
2023/03/21 16:51:56;;;;;;;;;;;;;;;15.52;45.96;99650.84;1087904;54;19946;-80
2023/03/21 16:53:02;;;;;;;;;;;;;;;15.55;45.90;99655.03;1089987;46;19986;-80
2023/03/21 16:54:03;;;;;;;;;;;;;;;15.53;46.31;99651.66;1088166;46;19927;-79
2023/03/21 16:55:10;;;;;;;;;;;;;;;15.48;46.21;99659.50;1087931;46;19938;-81
2023/03/21 16:56:19;;;;;;;;;;;;;;;15.50;46.21;99657.44;1088013;46;19945;-81
2023/03/21 16:57:26;;;;;;;;;;;;;;;15.43;46.55;99658.19;1087837;54;19966;-80
2023/03/21 16:58:30;;;;;;;;;;;;;;;15.39;46.80;99666.81;1087766;54;20951;-80
2023/03/21 16:59:34;;;;;;;;;;;;;;;15.37;46.60;99671.53;1088660;39;20652;-81
2023/03/21 17:00:39;;;;;;;;;;;;;;;15.34;46.59;99662.00;1087707;54;19949;-80
2023/03/21 17:01:40;;;;;;;;;;;;;;;15.32;46.92;99666.72;1087786;54;19970;-80
2023/03/21 17:02:44;;;;;;;;;;;;;;;15.25;46.96;99668.47;1087696;54;19946;-81
2023/03/21 17:03:45;;;;;;;;;;;;;;;15.21;46.91;99672.59;1088582;46;19962;-80
2023/03/21 17:04:49;;;;;;;;;;;;;;;15.17;47.39;99663.19;1087768;54;19950;-80
2023/03/21 17:05:52;;;;;;;;;;;;;;;15.20;47.26;99670.91;1087853;47;19947;-80
2023/03/21 17:07:00;;;;;;;;;;;;;;;15.23;47.29;99670.50;1088405;46;19966;-80
2023/03/21 17:08:04;;;;;;;;;;;;;;;15.28;47.29;99673.50;1087676;54;19950;-79
2023/03/21 17:09:06;;;;;;;;;;;;;;;15.29;47.36;99670.63;1087776;54;19946;-80
2023/03/21 17:10:15;;;;;;;;;;;;;;;15.33;47.34;99665.69;1089091;39;20818;-79
2023/03/21 17:11:23;;;;;;;;;;;;;;;15.35;47.04;99669.06;1087518;54;19943;-80
2023/03/21 17:12:24;;;;;;;;;;;;;;;15.36;47.12;99669.88;1088596;46;19939;-81
2023/03/21 17:13:28;;;;;;;;;;;;;;;15.34;47.29;99666.56;1088962;46;19947;-79
2023/03/21 17:14:31;;;;;;;;;;;;;;;15.32;47.29;99668.59;1088177;54;19938;-79
2023/03/21 17:15:35;;;;;;;;;;;;;;;15.31;47.54;99667.72;1090828;46;19942;-80
2023/03/21 17:16:39;;;;;;;;;;;;;;;15.29;47.34;99662.53;1088185;47;20822;-80
2023/03/21 17:17:42;;;;;;;;;;;;;;;15.30;47.49;99660.69;1088786;39;20205;-81
2023/03/21 17:18:44;;;;;;;;;;;;;;;15.19;47.59;99661.97;1088829;46;19930;-80
2023/03/21 17:19:48;;;;;;;;;;;;;;;15.23;47.60;99667.81;1088141;54;19949;-81
2023/03/21 17:20:51;;;;;;;;;;;;;;;15.19;47.87;99666.53;1087725;54;19934;-80
2023/03/21 17:21:56;;;;;;;;;;;;;;;15.22;47.92;99666.16;1087773;54;19943;-81
2023/03/21 17:22:57;;;;;;;;;;;;;;;15.25;47.55;99671.19;1088999;46;19951;-79
2023/03/21 17:24:03;;;;;;;;;;;;;;;15.18;47.80;99673.75;1087689;54;19951;-79
2023/03/21 17:25:05;;;;;;;;;;;;;;;15.18;47.61;99663.00;1087414;54;19957;-80
2023/03/21 17:26:30;;;;;;;;;;;;;;;15.17;47.77;99663.19;1087593;54;20001;-80
2023/03/21 17:27:34;;;;;;;;;;;;;;;15.12;48.05;99659.19;1087791;54;19951;-80
2023/03/21 17:28:38;;;;;;;;;;;;;;;15.12;47.77;99664.56;1087615;54;19942;-81
2023/03/21 17:29:39;;;;;;;;;;;;;;;15.09;48.10;99664.09;1087312;54;19947;-80
2023/03/21 17:30:43;;;;;;;;;;;;;;;15.10;48.05;99660.38;1087614;54;19998;-80
2023/03/21 17:31:47;;;;;;;;;;;;;;;15.12;47.93;99669.94;1087851;54;19942;-80
2023/03/21 17:32:51;;;;;;;;;;;;;;;15.12;48.09;99674.50;1087657;54;20642;-81
2023/03/21 17:33:52;;;;;;;;;;;;;;;15.13;48.00;99671.63;1087265;54;19978;-81
2023/03/21 17:34:56;;;;;;;;;;;;;;;15.11;48.40;99670.97;1086046;54;19950;-81
2023/03/21 17:36:04;;;;;;;;;;;;;;;15.11;48.48;99657.50;1087650;54;19942;-81
2023/03/21 17:37:11;;;;;;;;;;;;;;;15.10;48.18;99666.63;1087345;54;20031;-81
2023/03/21 17:38:17;;;;;;;;;;;;;;;15.12;48.36;99664.56;1087901;39;20350;-81
2023/03/21 17:39:23;;;;;;;;;;;;;;;15.12;48.78;99671.81;1087221;54;20460;-80
2023/03/21 17:40:25;;;;;;;;;;;;;;;15.14;48.75;99667.09;1087753;54;20935;-81
2023/03/21 17:41:30;;;;;;;;;;;;;;;15.13;48.77;99668.94;1087523;54;19950;-79
2023/03/21 17:42:31;;;;;;;;;;;;;;;15.15;48.84;99673.28;1087566;54;19943;-80
2023/03/21 17:43:38;;;;;;;;;;;;;;;15.16;49.44;99674.97;1086547;54;19953;-80
2023/03/21 17:44:42;;;;;;;;;;;;;;;15.16;49.26;99674.97;1085913;54;19950;-80
2023/03/21 17:45:45;;;;;;;;;;;;;;;15.19;48.71;99677.31;1086667;54;19939;-79
2023/03/21 17:46:47;;;;;;;;;;;;;;;15.20;48.82;99679.81;1086305;54;19956;-80
2023/03/21 17:47:50;;;;;;;;;;;;;;;15.19;49.15;99674.63;1086105;54;19965;-79
2023/03/21 17:48:52;;;;;;;;;;;;;;;15.20;49.00;99677.13;1086839;46;20559;-80
2023/03/21 17:49:57;;;;;;;;;;;;;;;15.22;48.94;99677.78;1086807;54;19970;-80
2023/03/21 17:50:58;;;;;;;;;;;;;;;15.19;49.43;99674.63;1086561;54;19972;-79
2023/03/21 17:52:01;;;;;;;;;;;;;;;15.11;50.12;99678.22;1086692;54;19958;-80
2023/03/21 17:53:03;;;;;;;;;;;;;;;15.12;49.62;99683.41;1086377;54;19954;-80
2023/03/21 17:54:08;;;;;;;;;;;;;;;15.10;49.84;99681.94;1085973;54;19950;-79
2023/03/21 17:55:09;;;;;;;;;;;;;;;15.08;49.91;99682.13;1086058;54;19966;-80
2023/03/21 17:56:15;;;;;;;;;;;;;;;15.11;49.71;99683.59;1086697;54;19974;-81
2023/03/21 17:57:16;;;;;;;;;;;;;;;15.09;49.83;99683.78;1087354;54;19957;-81
2023/03/21 17:58:20;;;;;;;;;;;;;;;15.11;49.88;99684.41;1087401;54;19950;-80
2023/03/21 17:59:27;;;;;;;;;;;;;;;15.08;50.17;99682.13;1087981;54;19943;-81
2023/03/21 18:00:29;;;;;;;;;;;;;;;15.12;49.82;99683.41;1087843;54;19957;-81
2023/03/21 18:01:34;;;;;;;;;;;;;;;15.08;50.30;99682.13;1088829;39;20531;-81
2023/03/21 18:02:36;;;;;;;;;;;;;;;15.01;50.17;99683.88;1087092;54;19947;-81
2023/03/21 18:03:40;;;;;;;;;;;;;;;14.99;50.55;99683.22;1087586;54;20963;-80
2023/03/21 18:04:41;;;;;;;;;;;;;;;14.97;50.39;99682.56;1087172;54;19954;-80
2023/03/21 18:05:50;;;;;;;;;;;;;;;14.94;50.71;99682.91;1087409;54;19939;-80
2023/03/21 18:06:52;;;;;;;;;;;;;;;14.91;50.80;99677.91;1087599;54;19946;-80
2023/03/21 18:07:56;;;;;;;;;;;;;;;14.83;51.08;99681.50;1087719;54;19994;-80
2023/03/21 18:08:58;;;;;;;;;;;;;;;14.81;51.19;99679.00;1087223;54;19949;-80
2023/03/21 18:10:02;;;;;;;;;;;;;;;14.78;51.68;99679.34;1087585;54;19927;-80
2023/03/21 18:11:06;;;;;;;;;;;;;;;14.73;51.67;99676.38;1088451;39;20675;-79
2023/03/21 18:12:08;;;;;;;;;;;;;;;14.73;52.04;99665.63;1087498;54;19942;-80
2023/03/21 18:13:12;;;;;;;;;;;;;;;14.71;52.00;99662.28;1087475;54;19958;-80
2023/03/21 18:14:14;;;;;;;;;;;;;;;14.61;52.41;99661.66;1087744;46;19978;-79
2023/03/21 18:15:21;;;;;;;;;;;;;;;14.60;52.53;99658.09;1087332;54;19942;-80
2023/03/21 18:16:22;;;;;;;;;;;;;;;14.57;52.57;99666.56;1087207;54;19955;-80
2023/03/21 18:17:26;;;;;;;;;;;;;;;14.54;53.04;99676.84;1087413;54;19937;-80
2023/03/21 18:18:27;;;;;;;;;;;;;;;14.55;52.80;99671.28;1087303;54;19950;-80
2023/03/21 18:19:32;;;;;;;;;;;;;;;14.56;52.58;99666.72;1087362;54;19949;-80
2023/03/21 18:20:36;;;;;;;;;;;;;;;14.49;52.92;99675.50;1086584;54;19970;-80
2023/03/21 18:21:39;;;;;;;;;;;;;;;14.47;52.98;99672.16;1087159;54;19957;-79
2023/03/21 18:22:43;;;;;;;;;;;;;;;14.42;53.73;99669.19;1087676;54;20583;-81
2023/03/21 18:23:44;;;;;;;;;;;;;;;14.41;53.77;99672.88;1087242;54;19943;-80
2023/03/21 18:24:48;;;;;;;;;;;;;;;14.42;53.66;99674.56;1087005;54;19950;-79
2023/03/21 18:25:59;;;;;;;;;;;;;;;14.44;53.68;99679.75;1087717;54;19938;-82
2023/03/21 18:27:03;;;;;;;;;;;;;;;14.46;53.68;99683.09;1087477;54;19973;-80
2023/03/21 18:28:04;;;;;;;;;;;;;;;14.42;54.49;99685.31;1087453;54;19943;-80
2023/03/21 18:29:08;;;;;;;;;;;;;;;14.45;54.27;99684.94;1087293;54;19946;-81
2023/03/21 18:30:13;;;;;;;;;;;;;;;14.48;54.21;99692.66;1087041;54;19953;-78
2023/03/21 18:31:22;;;;;;;;;;;;;;;14.50;54.13;99682.56;1087319;54;19950;-79
2023/03/21 18:32:24;;;;;;;;;;;;;;;14.55;53.66;99689.28;1087332;54;19966;-79
2023/03/21 18:33:28;;;;;;;;;;;;;;;14.54;54.10;99687.59;1087583;54;19954;-79
2023/03/21 18:34:32;;;;;;;;;;;;;;;14.55;54.08;99690.09;1087520;54;19973;-80
2023/03/21 18:35:36;;;;;;;;;;;;;;;14.51;54.58;99686.09;1087351;54;19947;-80
2023/03/21 18:36:38;;;;;;;;;;;;;;;14.46;55.12;99680.41;1088133;47;19927;-80
2023/03/21 18:37:51;;;;;;;;;;;;;;;14.38;55.10;99684.00;1088330;47;19938;-82
2023/03/21 18:39:23;;;;;;;;;;;;;;;14.36;55.59;99680.63;1088090;47;19943;-81
2023/03/21 18:40:27;;;;;;;;;;;;;;;14.37;55.33;99676.94;1088080;47;20002;-80
2023/03/21 18:41:29;;;;;;;;;;;;;;;14.30;55.71;99671.47;1088093;47;19927;-80
2023/03/21 18:42:33;;;;;;;;;;;;;;;14.29;55.48;99672.47;1087768;54;19946;-80
2023/03/21 18:43:35;;;;;;;;;;;;;;;14.25;56.59;99670.31;1087683;54;19938;-81
2023/03/21 18:44:38;;;;;;;;;;;;;;;14.29;55.87;99671.63;1088904;47;19927;-81
2023/03/21 18:45:42;;;;;;;;;;;;;;;14.24;55.68;99672.16;1087675;54;19942;-80
2023/03/21 18:46:49;;;;;;;;;;;;;;;14.25;55.68;99670.31;1088150;47;19990;-80
2023/03/21 18:47:53;;;;;;;;;;;;;;;14.28;55.31;99675.31;1089320;47;19966;-80
2023/03/21 18:48:55;;;;;;;;;;;;;;;14.31;55.71;99677.66;1087961;54;19950;-81
2023/03/21 18:49:59;;;;;;;;;;;;;;;14.32;55.66;99674.78;1089805;47;19943;-81
2023/03/21 18:51:01;;;;;;;;;;;;;;;14.33;55.68;99681.84;1088372;47;19923;-80
2023/03/21 18:53:38;;;;;;;;;;;;;;;14.40;55.65;99687.34;1087905;54;19963;-81
2023/03/21 18:54:41;;;;;;;;;;;;;;;14.41;55.75;99696.22;1087930;54;19943;-80
2023/03/21 18:55:45;;;;;;;;;;;;;;;14.41;55.63;99688.16;1089781;39;20746;-80
2023/03/21 18:56:50;;;;;;;;;;;;;;;14.41;55.59;99694.41;1088464;47;19990;-81
2023/03/21 18:57:54;;;;;;;;;;;;;;;14.42;55.69;99690.69;1087909;54;19978;-81
2023/03/21 18:58:55;;;;;;;;;;;;;;;14.43;55.41;99692.38;1087718;47;19950;-80
2023/03/21 18:59:59;;;;;;;;;;;;;;;14.45;55.48;99695.69;1088116;47;19998;-80
2023/03/21 19:01:00;;;;;;;;;;;;;;;14.46;55.39;99699.25;1088394;47;19966;-80
2023/03/21 19:02:07;;;;;;;;;;;;;;;14.45;55.59;99695.69;1087517;54;19995;-80
2023/03/21 19:03:10;;;;;;;;;;;;;;;14.47;55.65;99700.91;1089929;39;20207;-80
2023/03/21 19:04:14;;;;;;;;;;;;;;;14.46;56.18;99697.38;1087550;47;20335;-81
2023/03/21 19:05:26;;;;;;;;;;;;;;;14.35;57.00;99695.94;1087450;54;19943;-80
2023/03/21 19:06:40;;;;;;;;;;;;;;;;;;;;;
2023/03/21 19:07:45;;;;;;;;;;;;;;;14.27;56.73;99695.16;1087408;54;19994;-80
2023/03/21 19:08:49;;;;;;;;;;;;;;;14.33;56.34;99695.28;1087940;54;19994;-79
2023/03/21 19:09:56;;;;;;;;;;;;;;;14.35;56.58;99697.81;1088782;46;19949;-81
2023/03/21 19:10:58;;;;;;;;;;;;;;;14.35;56.37;99687.88;1088079;46;19958;-80
2023/03/21 19:12:02;;;;;;;;;;;;;;;14.29;56.92;99691.28;1087656;54;19934;-81
2023/03/21 19:13:06;;;;;;;;;;;;;;;14.12;57.89;99693.22;1087665;54;19935;-81
2023/03/21 19:14:08;;;;;;;;;;;;;;;14.12;57.71;99685.16;1087783;54;19946;-80
2023/03/21 19:15:12;;;;;;;;;;;;;;;14.04;58.65;99693.28;1087919;54;19942;-80
2023/03/21 19:16:13;;;;;;;;;;;;;;;14.00;58.39;99687.41;1087243;54;20457;-81
2023/03/21 19:17:20;;;;;;;;;;;;;;;13.94;58.45;99687.28;1087455;54;19943;-81
2023/03/21 19:18:21;;;;;;;;;;;;;;;13.93;58.82;99683.78;1087403;54;19974;-82
2023/03/21 19:19:29;;;;;;;;;;;;;;;14.01;58.23;99685.56;1086830;54;19946;-80
2023/03/21 19:20:33;;;;;;;;;;;;;;;14.06;58.17;99682.34;1087368;54;19949;-80
2023/03/21 19:21:37;;;;;;;;;;;;;;;13.98;58.46;99683.25;1087133;54;19955;-79
2023/03/21 19:22:41;;;;;;;;;;;;;;;13.97;58.61;99687.75;1086949;54;19973;-79
2023/03/21 19:23:43;;;;;;;;;;;;;;;13.93;58.92;99683.78;1086449;54;19946;-79
2023/03/21 19:24:47;;;;;;;;;;;;;;;13.99;58.59;99682.19;1087061;54;19950;-79
2023/03/21 19:25:48;;;;;;;;;;;;;;;13.98;58.29;99680.56;1086556;54;19954;-80
2023/03/21 19:26:52;;;;;;;;;;;;;;;13.93;58.62;99680.22;1086821;54;19942;-80
2023/03/21 19:27:57;;;;;;;;;;;;;;;13.90;58.76;99681.44;1090030;39;20409;-80
2023/03/21 19:28:58;;;;;;;;;;;;;;;13.92;58.75;99681.25;1087738;39;20385;-80
2023/03/21 19:30:03;;;;;;;;;;;;;;;13.97;58.48;99678.88;1088464;31;20710;-80
2023/03/21 19:31:05;;;;;;;;;;;;;;;13.96;58.60;99674.50;1087539;54;19970;-80
2023/03/21 19:32:10;;;;;;;;;;;;;;;13.95;58.56;99678.22;1087351;39;20432;-80
2023/03/21 19:33:14;;;;;;;;;;;;;;;13.98;58.09;99670.63;1089617;39;20408;-80
2023/03/21 19:34:20;;;;;;;;;;;;;;;13.99;58.10;99677.69;1087346;54;19942;-80
2023/03/21 19:35:24;;;;;;;;;;;;;;;14.01;58.23;99666.75;1087282;54;19950;-81
2023/03/21 19:36:31;;;;;;;;;;;;;;;13.95;58.57;99673.66;1088187;54;19943;-80
2023/03/21 19:37:37;;;;;;;;;;;;;;;13.92;58.54;99678.56;1088116;54;19995;-82
2023/03/21 19:38:55;;;;;;;;;;;;;;;13.92;58.48;99678.56;1087946;54;19942;-81
2023/03/21 19:47:23;;;;;;;;;;;;;;;;;;;;;
2023/03/21 19:48:31;;;;;;;;;;;;;;;13.75;58.65;99694.75;1087820;54;19933;-82
2023/03/21 19:49:32;;;;;;;;;;;;;;;13.66;59.41;99691.25;1087423;54;19962;-80
2023/03/21 19:50:48;;;;;;;;;;;;;;;13.61;59.42;99687.41;1087686;54;19934;-80
2023/03/21 19:53:22;;;;;;;;;;;;;;;13.72;58.96;99689.72;1090367;46;19951;-81
2023/03/21 19:54:24;;;;;;;;;;;;;;;13.77;58.70;99690.06;1087404;54;19973;-80
2023/03/21 19:55:28;;;;;;;;;;;;;;;13.82;58.50;99681.47;1087510;54;19983;-81
2023/03/21 19:56:34;;;;;;;;;;;;;;;13.81;58.33;99680.63;1089524;46;19949;-81
2023/03/21 19:57:36;;;;;;;;;;;;;;;13.83;58.25;99678.59;1087696;54;19950;-80
2023/03/21 19:58:41;;;;;;;;;;;;;;;13.84;58.47;99691.03;1089694;46;19978;-80
2023/03/21 20:02:47;;;;;;;;;;;;;;;13.84;58.72;99688.34;1089707;46;19942;-80
2023/03/21 20:03:52;;;;;;;;;;;;;;;13.72;59.49;99692.41;1088336;46;19943;-80
2023/03/21 20:04:58;;;;;;;;;;;;;;;13.63;59.83;99698.81;1088244;46;19950;-80
2023/03/21 20:06:28;;;;;;;;;;;;;;;13.54;60.03;99693.47;1089114;46;19946;-81
2023/03/21 20:08:56;;;;;;;;;;;;;;;13.46;60.43;99696.19;1087945;54;19927;-80
2023/03/21 20:10:03;;;;;;;;;;;;;;;13.47;60.03;99697.00;1088940;46;19949;-81
2023/03/21 20:11:08;;;;;;;;;;;;;;;13.49;60.03;99698.53;1090725;46;19956;-80
2023/03/21 20:12:13;;;;;;;;;;;;;;;13.46;60.30;99701.56;1088577;46;19942;-80
2023/03/21 20:13:17;;;;;;;;;;;;;;;13.41;60.35;99699.38;1088070;46;19966;-81
2023/03/21 20:16:00;;;;;;;;;;;;;;;13.40;60.76;99710.31;1088302;46;19939;-80
2023/03/21 20:17:13;;;;;;;;;;;;;;;13.39;60.60;99700.56;1088085;54;19934;-80
2023/03/21 20:18:29;;;;;;;;;;;;;;;13.37;60.46;99692.66;1088999;46;19995;-81
2023/03/21 20:19:46;;;;;;;;;;;;;;;13.34;60.65;99702.91;1088189;54;19942;-81
2023/03/21 20:23:38;;;;;;;;;;;;;;;13.43;60.43;99701.91;1088065;54;19927;-81
2023/03/21 20:24:41;;;;;;;;;;;;;;;13.44;60.50;99697.38;1088820;46;19963;-80
2023/03/21 20:25:47;;;;;;;;;;;;;;;13.39;60.66;99696.03;1090055;46;19949;-81
2023/03/21 20:26:55;;;;;;;;;;;;;;;13.43;60.42;99693.84;1088751;46;19994;-80
2023/03/21 20:27:57;;;;;;;;;;;;;;;13.46;60.13;99698.06;1088137;54;19943;-80
2023/03/21 20:33:47;;;;;;;;;;;;;;;13.55;59.70;99705.91;1089081;46;19949;-80
2023/03/21 20:34:51;;;;;;;;;;;;;;;13.56;59.85;99698.66;1087480;47;20021;-80
2023/03/21 20:36:01;;;;;;;;;;;;;;;13.59;59.55;99705.56;1087538;54;19946;-80
2023/03/21 20:39:03;;;;;;;;;;;;;;;13.65;59.44;99715.59;1087931;46;19954;-82
2023/03/21 20:40:07;;;;;;;;;;;;;;;13.65;59.59;99712.91;1089675;46;20238;-80
2023/03/21 20:41:12;;;;;;;;;;;;;;;13.64;59.40;99719.28;1087974;54;20010;-81
2023/03/21 20:45:38;;;;;;;;;;;;;;;13.66;59.39;99715.41;1088097;54;19949;-81
2023/03/21 23:08:15;;;;;;;;;;;;;;;12.28;65.33;99713.47;1087401;54;19962;-81
2023/03/21 23:09:16;;;;;;;;;;;;;;;12.26;65.49;99718.13;1087986;54;19967;-82
2023/03/21 23:10:21;;;;;;;;;;;;;;;12.27;65.43;99720.66;1087484;54;19950;-81
2023/03/21 23:11:22;;;;;;;;;;;;;;;12.26;65.48;99716.31;1088130;54;19966;-81
2023/03/21 23:12:33;;;;;;;;;;;;;;;12.23;65.94;99721.16;1088105;54;19982;-83
